Time;durP1;ratioP1;P1;durP2;ratioP2;P2;SDS_P1;SDS_P2;PMS_P1;PMS_P2;Temp;Humidity;BMP_temperature;BMP_pressure;BME280_temperature;BME280_humidity;BME280_pressure;Samples;Min_cycle;Max_cycle;Signal;HPM_P1;HPM_P2
2023/02/14 00:01:19;;;;;;;;;;;;;;;3.54;83.14;102922.12;108880;1257;124144;-86
2023/02/14 00:03:46;;;;;;;;;;;;;;;3.56;83.17;102924.04;109046;1256;65665;-86
2023/02/14 00:06:13;;;;;;;;;;;;;;;3.56;83.08;102928.88;108963;1256;71687;-85
2023/02/14 00:08:43;;;;;;;;;;;;;;;3.54;83.07;102931.83;108626;1257;124792;-86
2023/02/14 00:11:10;;;;;;;;;;;;;;;3.53;83.04;102938.55;108815;1254;59175;-86
2023/02/14 00:13:37;;;;;;;;;;;;;;;3.54;83.17;102938.59;108712;1256;124948;-86
2023/02/14 00:16:04;;;;;;;;;;;;;;;3.55;83.32;102937.29;108870;1257;67272;-86
2023/02/14 00:21:17;;;;;;;;;;;;;;;3.58;83.42;102935.46;108900;1255;59002;-86
2023/02/14 00:23:44;;;;;;;;;;;;;;;3.57;83.44;102936.77;108735;1255;59156;-86
2023/02/14 00:26:14;;;;;;;;;;;;;;;3.56;83.32;102938.96;108821;1255;124889;-85
2023/02/14 00:28:41;;;;;;;;;;;;;;;3.55;83.33;102942.55;108874;1257;66843;-86
2023/02/14 00:31:08;;;;;;;;;;;;;;;3.56;83.65;102943.26;108680;1257;124773;-85
2023/02/14 00:33:35;;;;;;;;;;;;;;;3.57;83.67;102941.44;108997;1256;58474;-86
2023/02/14 00:36:03;;;;;;;;;;;;;;;3.58;83.85;102944.17;108869;1257;58866;-86
2023/02/14 00:38:30;;;;;;;;;;;;;;;3.59;83.65;102943.89;108822;1256;124297;-86
2023/02/14 00:40:57;;;;;;;;;;;;;;;3.57;83.67;102942.89;109015;1256;67060;-84
2023/02/14 00:43:24;;;;;;;;;;;;;;;3.57;83.71;102942.88;108746;1259;124792;-85
2023/02/14 00:45:51;;;;;;;;;;;;;;;3.57;83.79;102938.91;108811;1256;58686;-86
2023/02/14 00:48:18;;;;;;;;;;;;;;;3.58;83.76;102941.39;109001;1256;59997;-86
2023/02/14 00:50:46;;;;;;;;;;;;;;;3.59;83.89;102948.27;108781;1256;123857;-86
2023/02/14 00:53:13;;;;;;;;;;;;;;;3.60;84.15;102954.60;108894;1255;66800;-86
2023/02/14 00:55:40;;;;;;;;;;;;;;;3.60;83.95;102953.00;108710;1270;124484;-87
2023/02/14 00:58:07;;;;;;;;;;;;;;;3.59;83.96;102955.77;109052;1256;58467;-87
2023/02/14 01:00:34;;;;;;;;;;;;;;;3.60;84.06;102954.92;108944;1256;124640;-86
2023/02/14 01:03:01;;;;;;;;;;;;;;;3.62;84.28;102953.59;108858;1257;72668;-86
2023/02/14 01:05:28;;;;;;;;;;;;;;;3.63;84.12;102957.79;108852;1255;65788;-86
2023/02/14 01:07:55;;;;;;;;;;;;;;;3.63;84.07;102960.59;108835;1255;124038;-86
2023/02/14 01:10:22;;;;;;;;;;;;;;;3.61;84.17;102966.11;108929;1255;58552;-86
2023/02/14 01:12:49;;;;;;;;;;;;;;;3.62;84.24;102970.88;108882;1256;124877;-86
2023/02/14 01:15:16;;;;;;;;;;;;;;;3.62;84.20;102973.75;108877;1256;73400;-85
2023/02/14 01:17:43;;;;;;;;;;;;;;;3.62;84.32;102969.18;108933;1256;67031;-85
2023/02/14 01:20:10;;;;;;;;;;;;;;;3.61;84.19;102967.76;108874;1257;124093;-86
2023/02/14 01:22:37;;;;;;;;;;;;;;;3.60;84.29;102971.46;108864;1256;58339;-86
2023/02/14 01:25:04;;;;;;;;;;;;;;;3.59;84.23;102976.73;108779;1256;124787;-86
2023/02/14 01:27:31;;;;;;;;;;;;;;;3.59;84.24;102978.84;108825;1256;73562;-86
2023/02/14 01:29:58;;;;;;;;;;;;;;;3.58;84.28;102981.70;108955;1257;66937;-85
2023/02/14 01:32:25;;;;;;;;;;;;;;;3.57;84.31;102984.23;108859;1256;124462;-85
2023/02/14 01:34:52;;;;;;;;;;;;;;;3.56;84.40;102985.86;108760;1258;58640;-85
2023/02/14 01:37:19;;;;;;;;;;;;;;;3.57;84.52;102989.20;108690;1254;124590;-85
2023/02/14 01:39:46;;;;;;;;;;;;;;;3.57;84.49;102987.70;108752;1260;74179;-85
2023/02/14 01:42:13;;;;;;;;;;;;;;;3.59;84.51;102986.59;108663;1257;66489;-85
2023/02/14 01:44:40;;;;;;;;;;;;;;;3.59;84.50;102982.48;108658;1257;125064;-85
2023/02/14 01:47:07;;;;;;;;;;;;;;;3.58;84.55;102986.52;108919;1256;59150;-86
2023/02/14 01:49:34;;;;;;;;;;;;;;;3.57;84.52;102988.02;108710;1257;125068;-85
2023/02/14 01:52:05;;;;;;;;;;;;;;;3.56;84.52;102992.94;108766;1256;74566;-84
2023/02/14 01:54:33;;;;;;;;;;;;;;;3.54;84.55;102995.05;108704;1257;124795;-84
2023/02/14 01:57:00;;;;;;;;;;;;;;;3.53;84.57;102991.29;108852;1260;73586;-85
2023/02/14 01:59:30;;;;;;;;;;;;;;;3.52;84.51;102989.95;108641;1256;59566;-85
2023/02/14 02:01:57;;;;;;;;;;;;;;;3.50;84.58;102989.65;108544;1262;124844;-86
2023/02/14 02:04:25;;;;;;;;;;;;;;;3.49;84.60;102988.50;108800;1256;73746;-85
2023/02/14 02:06:53;;;;;;;;;;;;;;;3.48;84.65;102991.55;108752;1256;124918;-86
2023/02/14 02:09:25;;;;;;;;;;;;;;;3.45;84.60;102991.33;108787;1256;72567;-85
2023/02/14 02:11:52;;;;;;;;;;;;;;;3.45;84.72;102987.84;108787;1256;58252;-85
2023/02/14 02:14:20;;;;;;;;;;;;;;;3.46;84.77;102984.12;108637;1257;124744;-85
2023/02/14 02:16:47;;;;;;;;;;;;;;;3.44;84.63;102982.19;108732;1257;73746;-84
2023/02/14 02:19:20;;;;;;;;;;;;;;;3.42;84.69;102985.81;108756;1256;124241;-85
2023/02/14 02:22:05;;;;;;;;;;;;;;;3.39;84.52;102994.41;108852;1258;72890;-85
2023/02/14 02:24:56;;;;;;;;;;;;;;;3.36;84.53;102997.19;108751;1256;124839;-85
2023/02/14 02:27:29;;;;;;;;;;;;;;;3.33;84.74;102993.81;108842;1256;60079;-84
2023/02/14 02:30:02;;;;;;;;;;;;;;;3.31;84.73;102991.98;108917;1256;73048;-85
2023/02/14 02:32:41;;;;;;;;;;;;;;;3.31;84.75;102991.75;108779;1256;124762;-84
2023/02/14 02:35:11;;;;;;;;;;;;;;;3.30;84.90;102991.70;108922;1256;70958;-84
2023/02/14 02:37:50;;;;;;;;;;;;;;;3.29;84.78;102992.11;108771;1260;126389;-84
2023/02/14 02:40:21;;;;;;;;;;;;;;;3.27;84.81;102995.11;108844;1257;58837;-85
2023/02/14 02:42:54;;;;;;;;;;;;;;;3.25;84.84;102998.02;108750;1255;124815;-85
2023/02/14 02:45:27;;;;;;;;;;;;;;;3.25;85.04;103005.10;108823;1256;67078;-85
2023/02/14 02:47:54;;;;;;;;;;;;;;;3.27;85.15;103001.83;108899;1256;71444;-85
2023/02/14 02:53:39;;;;;;;;;;;;;;;3.27;85.07;103001.30;108892;1259;58555;-85
2023/02/14 02:58:57;;;;;;;;;;;;;;;3.23;85.05;103011.56;108764;1262;68132;-85
2023/02/14 03:01:31;;;;;;;;;;;;;;;3.23;85.04;103007.70;108781;1256;124115;-85
2023/02/14 03:06:45;;;;;;;;;;;;;;;3.21;85.15;103005.45;108757;1272;124814;-85
2023/02/14 03:09:32;;;;;;;;;;;;;;;3.20;85.23;103004.85;108855;1256;73885;-86
2023/02/14 03:12:05;;;;;;;;;;;;;;;3.19;85.14;103009.80;108856;1256;65923;-85
2023/02/14 03:14:32;;;;;;;;;;;;;;;3.18;85.10;103012.99;108774;1257;124127;-85
2023/02/14 03:17:07;;;;;;;;;;;;;;;3.18;85.47;103010.91;108915;1256;58258;-86
2023/02/14 03:22:47;;;;;;;;;;;;;;;3.19;85.32;103010.27;108792;1256;72256;-85
2023/02/14 03:25:20;;;;;;;;;;;;;;;3.17;85.35;103021.04;108866;1257;124663;-85
2023/02/14 03:27:58;;;;;;;;;;;;;;;3.15;85.47;103023.14;108928;1256;72574;-85
2023/02/14 03:30:27;;;;;;;;;;;;;;;3.16;85.45;103026.14;108866;1255;124531;-84
2023/02/14 03:32:59;;;;;;;;;;;;;;;3.18;85.55;103028.20;108903;1256;60530;-85
2023/02/14 03:35:30;;;;;;;;;;;;;;;3.20;85.52;103030.13;108863;1271;74894;-85
2023/02/14 03:38:08;;;;;;;;;;;;;;;3.23;85.74;103030.80;108741;1256;124716;-85
2023/02/14 03:40:48;;;;;;;;;;;;;;;3.29;85.86;103030.11;108812;1256;72754;-85
2023/02/14 03:43:20;;;;;;;;;;;;;;;3.37;85.80;103028.95;108739;1256;124707;-85
2023/02/14 03:45:51;;;;;;;;;;;;;;;3.44;85.87;103037.19;108808;1257;58666;-85
2023/02/14 03:48:18;;;;;;;;;;;;;;;3.52;85.85;103034.60;108865;1256;73638;-85
2023/02/14 03:50:45;;;;;;;;;;;;;;;3.58;85.76;103037.02;108748;1260;123956;-85
2023/02/14 03:53:12;;;;;;;;;;;;;;;3.62;85.55;103040.18;108732;1256;72066;-85
2023/02/14 03:55:45;;;;;;;;;;;;;;;3.66;85.71;103045.80;108598;1256;124214;-85
2023/02/14 03:58:16;;;;;;;;;;;;;;;3.70;85.54;103049.44;108827;1256;59417;-85
2023/02/14 04:00:42;;;;;;;;;;;;;;;3.72;85.46;103048.59;108687;1258;125088;-85
2023/02/14 04:03:13;;;;;;;;;;;;;;;3.75;85.41;103039.75;108725;1257;65538;-86
2023/02/14 04:05:42;;;;;;;;;;;;;;;3.77;85.33;103035.09;108709;1256;72007;-86
2023/02/14 04:08:10;;;;;;;;;;;;;;;3.79;85.35;103040.71;108646;1257;124601;-85
2023/02/14 04:10:38;;;;;;;;;;;;;;;3.82;85.20;103042.52;108736;1264;59548;-85
2023/02/14 04:13:05;;;;;;;;;;;;;;;3.85;85.21;103033.23;108663;1257;124883;-85
2023/02/14 04:15:32;;;;;;;;;;;;;;;3.86;85.28;103032.63;108755;1258;65462;-85
2023/02/14 04:20:45;;;;;;;;;;;;;;;3.89;85.12;103027.29;108710;1257;124790;-85
2023/02/14 04:23:12;;;;;;;;;;;;;;;3.90;85.08;103030.01;108779;1257;59766;-85
2023/02/14 04:25:41;;;;;;;;;;;;;;;3.90;84.99;103023.02;108654;1257;124283;-85
2023/02/14 04:28:11;;;;;;;;;;;;;;;3.88;84.93;103017.13;108715;1262;65880;-85
2023/02/14 04:30:38;;;;;;;;;;;;;;;3.85;84.86;103023.70;108670;1257;124842;-85
2023/02/14 04:33:06;;;;;;;;;;;;;;;3.86;84.79;103023.38;108795;1256;58584;-85
2023/02/14 04:35:34;;;;;;;;;;;;;;;3.87;84.93;103017.05;108875;1257;59663;-85
2023/02/14 04:38:01;;;;;;;;;;;;;;;3.88;84.87;103011.04;108666;1257;124853;-84
2023/02/14 04:40:28;;;;;;;;;;;;;;;3.87;84.74;103015.89;108848;1256;67634;-85
2023/02/14 04:42:55;;;;;;;;;;;;;;;3.86;84.68;103023.82;108646;1258;125242;-87
2023/02/14 04:45:22;;;;;;;;;;;;;;;3.87;84.89;103027.67;108698;1258;58606;-86
2023/02/14 04:47:49;;;;;;;;;;;;;;;3.89;84.75;103021.44;108814;1257;58487;-86
2023/02/14 04:50:16;;;;;;;;;;;;;;;3.91;84.81;103014.61;108714;1256;125139;-85
2023/02/14 04:52:43;;;;;;;;;;;;;;;3.93;84.85;103020.16;108776;1259;67176;-86
2023/02/14 04:55:10;;;;;;;;;;;;;;;3.95;84.77;103025.08;108654;1257;124753;-84
2023/02/14 04:57:37;;;;;;;;;;;;;;;3.96;84.62;103024.14;108727;1257;59412;-84
2023/02/14 05:00:04;;;;;;;;;;;;;;;3.95;84.63;103028.36;108686;1263;60160;-83
2023/02/14 05:02:31;;;;;;;;;;;;;;;3.93;84.47;103029.73;108542;1256;124885;-84
2023/02/14 05:04:58;;;;;;;;;;;;;;;3.93;84.54;103029.36;108713;1260;67017;-83
2023/02/14 05:07:25;;;;;;;;;;;;;;;3.91;84.54;103023.35;108661;1256;125574;-84
2023/02/14 05:09:52;;;;;;;;;;;;;;;3.88;84.48;103028.61;108723;1256;58877;-86
2023/02/14 05:12:19;;;;;;;;;;;;;;;3.84;84.54;103029.70;108804;1257;60442;-84
2023/02/14 05:14:46;;;;;;;;;;;;;;;3.82;84.57;103032.76;108768;1256;77462;-85
2023/02/14 05:17:13;;;;;;;;;;;;;;;3.80;84.56;103037.98;108709;1256;67615;-87
2023/02/14 05:19:40;;;;;;;;;;;;;;;3.78;84.54;103027.72;108753;1256;124419;-86
2023/02/14 05:22:07;;;;;;;;;;;;;;;3.76;84.41;103038.46;108863;1256;58346;-84
2023/02/14 05:24:34;;;;;;;;;;;;;;;3.72;84.35;103039.01;108749;1256;124299;-84
2023/02/14 05:27:01;;;;;;;;;;;;;;;3.66;84.22;103031.16;108844;1256;73544;-84
2023/02/14 05:29:28;;;;;;;;;;;;;;;3.60;84.21;103032.17;108727;1256;67199;-84
2023/02/14 05:31:55;;;;;;;;;;;;;;;3.54;84.26;103030.58;108727;1256;124965;-84
2023/02/14 05:34:22;;;;;;;;;;;;;;;3.46;84.03;103031.78;108759;1256;59058;-83
2023/02/14 05:36:49;;;;;;;;;;;;;;;3.38;84.21;103026.54;108700;1256;125057;-85
2023/02/14 05:39:16;;;;;;;;;;;;;;;3.31;84.08;103027.00;108807;1256;74123;-84
2023/02/14 05:41:46;;;;;;;;;;;;;;;3.24;84.27;103026.58;108903;1256;65656;-93
2023/02/14 05:44:13;;;;;;;;;;;;;;;3.19;84.35;103032.64;107501;1256;124661;-83
2023/02/14 05:46:40;;;;;;;;;;;;;;;3.13;84.43;103039.79;107712;1256;60434;-88
2023/02/14 05:49:07;;;;;;;;;;;;;;;3.08;84.62;103041.77;107715;1258;124419;-86
2023/02/14 05:51:34;;;;;;;;;;;;;;;3.06;84.84;103047.09;108088;1256;74468;-83
2023/02/14 05:54:01;;;;;;;;;;;;;;;3.04;84.76;103053.13;107819;1258;66557;-82
2023/02/14 05:56:28;;;;;;;;;;;;;;;3.03;84.96;103049.42;107441;1256;125052;-82
2023/02/14 05:58:55;;;;;;;;;;;;;;;3.02;85.04;103052.48;107718;1256;59479;-82
2023/02/14 06:01:22;;;;;;;;;;;;;;;3.04;85.32;103060.95;108141;1256;124710;-84
2023/02/14 06:03:49;;;;;;;;;;;;;;;3.06;85.33;103064.77;108188;1255;73870;-82
2023/02/14 06:06:16;;;;;;;;;;;;;;;3.08;85.35;103070.15;108008;1255;67068;-82
2023/02/14 06:08:43;;;;;;;;;;;;;;;3.09;85.44;103070.48;107847;1260;124628;-81
2023/02/14 06:11:10;;;;;;;;;;;;;;;3.10;85.34;103070.73;107546;1260;60492;-82
2023/02/14 06:13:37;;;;;;;;;;;;;;;3.10;85.32;103070.38;107633;1259;124144;-81
2023/02/14 06:16:04;;;;;;;;;;;;;;;3.10;85.35;103072.48;107598;1257;72586;-81
2023/02/14 06:18:31;;;;;;;;;;;;;;;3.10;85.39;103073.89;107545;1255;125044;-81
2023/02/14 06:20:58;;;;;;;;;;;;;;;3.08;85.26;103072.98;108174;1259;71459;-81
2023/02/14 06:23:25;;;;;;;;;;;;;;;3.06;85.17;103072.39;108046;1257;59395;-89
2023/02/14 06:25:52;;;;;;;;;;;;;;;3.03;85.22;103074.58;107984;1259;125144;-81
2023/02/14 06:28:18;;;;;;;;;;;;;;;3.01;85.32;103085.10;108091;1258;71966;-79
2023/02/14 06:30:46;;;;;;;;;;;;;;;2.99;85.19;103093.10;107843;1257;125229;-80
2023/02/14 06:33:13;;;;;;;;;;;;;;;3.00;85.35;103090.04;107567;1255;70270;-80
2023/02/14 06:35:40;;;;;;;;;;;;;;;3.00;85.44;103087.48;107821;1255;59664;-81
2023/02/14 06:38:07;;;;;;;;;;;;;;;3.01;85.42;103091.25;107648;1255;125025;-83
2023/02/14 06:40:34;;;;;;;;;;;;;;;3.04;85.55;103090.77;107881;1259;74326;-82
2023/02/14 06:43:01;;;;;;;;;;;;;;;3.06;85.46;103097.05;108698;1256;124907;-82
2023/02/14 06:45:28;;;;;;;;;;;;;;;3.09;85.64;103094.56;108786;1256;71369;-82
2023/02/14 06:47:55;;;;;;;;;;;;;;;3.12;85.70;103095.02;108854;1255;58612;-82
2023/02/14 06:50:22;;;;;;;;;;;;;;;3.16;85.57;103092.76;108800;1259;124477;-82
2023/02/14 06:52:50;;;;;;;;;;;;;;;3.19;85.56;103092.66;109005;1256;72589;-82
2023/02/14 06:55:17;;;;;;;;;;;;;;;3.20;85.55;103104.46;108819;1255;124124;-82
2023/02/14 06:57:44;;;;;;;;;;;;;;;3.23;85.56;103115.64;108877;1256;70297;-82
2023/02/14 07:00:13;;;;;;;;;;;;;;;3.27;85.58;103115.34;108943;1256;58566;-82
2023/02/14 07:02:40;;;;;;;;;;;;;;;3.31;85.72;103100.45;108732;1255;124778;-82
2023/02/14 07:05:07;;;;;;;;;;;;;;;3.37;85.73;103119.71;108831;1260;74080;-82
2023/02/14 07:07:34;;;;;;;;;;;;;;;3.46;85.71;103138.76;108812;1257;124130;-82
2023/02/14 07:10:01;;;;;;;;;;;;;;;3.57;85.82;103134.34;108863;1256;70842;-82
2023/02/14 07:12:28;;;;;;;;;;;;;;;3.71;85.80;103126.95;108818;1255;125034;-82
2023/02/14 07:14:55;;;;;;;;;;;;;;;3.85;85.79;103126.86;109035;1255;60207;-82
2023/02/14 07:17:22;;;;;;;;;;;;;;;3.98;85.81;103134.56;108957;1257;73586;-82
2023/02/14 07:19:49;;;;;;;;;;;;;;;4.08;85.59;103140.21;108883;1257;124797;-80
2023/02/14 07:22:16;;;;;;;;;;;;;;;4.18;85.35;103143.73;108906;1257;72404;-80
2023/02/14 07:24:43;;;;;;;;;;;;;;;4.26;85.13;103141.85;108738;1256;124835;-82
2023/02/14 07:27:10;;;;;;;;;;;;;;;4.36;85.11;103137.83;108796;1257;58562;-82
2023/02/14 07:29:37;;;;;;;;;;;;;;;4.46;85.03;103129.66;108817;1255;73668;-83
2023/02/14 07:32:05;;;;;;;;;;;;;;;4.58;84.97;103135.19;108888;1255;124273;-82
2023/02/14 07:34:32;;;;;;;;;;;;;;;4.66;84.76;103143.27;108893;1263;72721;-83
2023/02/14 07:36:59;;;;;;;;;;;;;;;4.73;84.58;103141.58;108746;1257;125336;-82
2023/02/14 07:39:26;;;;;;;;;;;;;;;4.78;84.44;103136.30;108818;1256;59464;-83
2023/02/14 07:41:53;;;;;;;;;;;;;;;4.84;84.26;103135.23;108848;1255;72319;-82
2023/02/14 07:44:20;;;;;;;;;;;;;;;4.92;84.24;103149.23;108826;1255;124875;-83
2023/02/14 07:46:47;;;;;;;;;;;;;;;4.94;83.97;103156.93;108864;1256;73212;-82
2023/02/14 07:49:14;;;;;;;;;;;;;;;5.00;84.01;103154.67;108826;1257;125853;-82
2023/02/14 07:51:41;;;;;;;;;;;;;;;5.11;83.93;103153.73;108933;1272;60341;-83
2023/02/14 07:54:08;;;;;;;;;;;;;;;5.19;83.79;103153.33;109006;1255;72746;-83
2023/02/14 07:56:35;;;;;;;;;;;;;;;5.25;83.66;103156.66;108894;1270;124415;-80
2023/02/14 07:59:02;;;;;;;;;;;;;;;5.28;83.32;103151.30;108910;1257;73155;-82
2023/02/14 08:01:29;;;;;;;;;;;;;;;5.23;83.04;103150.70;108885;1256;125782;-81
2023/02/14 08:03:56;;;;;;;;;;;;;;;5.20;83.00;103150.15;108815;1259;60950;-82
2023/02/14 08:06:24;;;;;;;;;;;;;;;5.20;82.97;103159.01;108655;1270;126451;-82
2023/02/14 08:08:52;;;;;;;;;;;;;;;5.20;82.89;103156.90;108792;1257;66969;-82
2023/02/14 08:14:07;;;;;;;;;;;;;;;5.16;82.82;103158.80;108751;1255;125109;-81
2023/02/14 08:16:34;;;;;;;;;;;;;;;5.17;82.89;103160.85;108904;1257;60150;-82
2023/02/14 08:19:01;;;;;;;;;;;;;;;5.19;82.88;103162.42;108789;1255;125259;-82
2023/02/14 08:21:28;;;;;;;;;;;;;;;5.23;82.93;103163.78;108850;1257;66513;-81
2023/02/14 08:23:55;;;;;;;;;;;;;;;5.23;82.86;103166.79;108823;1261;71246;-81
2023/02/14 08:26:22;;;;;;;;;;;;;;;5.25;82.77;103169.52;108731;1260;125792;-84
2023/02/14 08:28:49;;;;;;;;;;;;;;;5.28;82.82;103173.63;108887;1257;59976;-81
2023/02/14 08:31:23;;;;;;;;;;;;;;;5.33;82.82;103177.71;108829;1257;124950;-83
2023/02/14 08:33:50;;;;;;;;;;;;;;;5.36;82.65;103182.67;109034;1256;66727;-83
2023/02/14 08:36:17;;;;;;;;;;;;;;;5.38;82.57;103188.88;109005;1257;71810;-84
2023/02/14 08:38:46;;;;;;;;;;;;;;;5.38;82.40;103181.39;108833;1256;124313;-83
2023/02/14 08:41:14;;;;;;;;;;;;;;;5.41;82.41;103183.92;108958;1255;59236;-83
2023/02/14 08:43:41;;;;;;;;;;;;;;;5.45;82.41;103183.03;108810;1257;125051;-83
2023/02/14 08:46:08;;;;;;;;;;;;;;;5.48;82.36;103183.98;108949;1257;67190;-83
2023/02/14 08:48:35;;;;;;;;;;;;;;;5.53;82.37;103188.41;108786;1257;125197;-83
2023/02/14 08:51:08;;;;;;;;;;;;;;;5.58;82.21;103186.58;108949;1257;59580;-83
2023/02/14 08:53:35;;;;;;;;;;;;;;;5.59;82.00;103176.20;109048;1256;59800;-83
2023/02/14 08:56:03;;;;;;;;;;;;;;;5.59;82.03;103170.50;108804;1257;126077;-83
2023/02/14 08:58:30;;;;;;;;;;;;;;;5.62;81.96;103173.30;108979;1257;66867;-83
2023/02/14 09:00:57;;;;;;;;;;;;;;;5.62;81.90;103181.01;108844;1257;124345;-83
2023/02/14 09:03:24;;;;;;;;;;;;;;;5.66;81.94;103180.82;108923;1256;58381;-83
2023/02/14 09:05:51;;;;;;;;;;;;;;;5.72;82.05;103172.76;108929;1257;58808;-81
2023/02/14 09:08:18;;;;;;;;;;;;;;;5.77;81.88;103168.67;108823;1255;123815;-81
2023/02/14 09:10:45;;;;;;;;;;;;;;;5.80;81.78;103170.13;108959;1257;67276;-82
2023/02/14 09:13:14;;;;;;;;;;;;;;;5.83;81.72;103171.96;108800;1255;124444;-82
2023/02/14 09:15:41;;;;;;;;;;;;;;;5.86;81.67;103171.66;108862;1259;186844;-82
2023/02/14 09:18:08;;;;;;;;;;;;;;;5.87;81.58;103170.74;109003;1257;59234;-82
2023/02/14 09:20:35;;;;;;;;;;;;;;;5.90;81.56;103168.50;108931;1256;124309;-82
2023/02/14 09:23:02;;;;;;;;;;;;;;;5.91;81.40;103168.77;109010;1257;65789;-82
2023/02/14 09:25:29;;;;;;;;;;;;;;;5.95;81.45;103162.98;108872;1257;138161;-82
2023/02/14 09:27:56;;;;;;;;;;;;;;;5.99;81.42;103164.42;108839;1257;59088;-82
2023/02/14 09:30:23;;;;;;;;;;;;;;;6.03;81.26;103165.60;108925;1257;59537;-82
2023/02/14 09:32:51;;;;;;;;;;;;;;;6.05;81.13;103169.98;108999;1255;74297;-82
2023/02/14 09:38:03;;;;;;;;;;;;;;;6.14;81.08;103161.13;108796;1257;124890;-82
2023/02/14 09:40:30;;;;;;;;;;;;;;;6.17;81.00;103162.45;108967;1256;58718;-82
2023/02/14 09:43:07;;;;;;;;;;;;;;;6.23;80.93;103170.20;108797;1255;125193;-81
2023/02/14 09:45:33;;;;;;;;;;;;;;;6.27;80.78;103178.19;108916;1259;73930;-82
2023/02/14 09:48:00;;;;;;;;;;;;;;;6.32;80.78;103178.77;108935;1256;65722;-81
2023/02/14 09:50:45;;;;;;;;;;;;;;;6.34;80.60;103181.35;108876;1258;125784;-82
2023/02/14 09:53:15;;;;;;;;;;;;;;;6.38;80.74;103183.33;108905;1257;59441;-82
2023/02/14 09:55:48;;;;;;;;;;;;;;;6.44;80.58;103182.70;108762;1256;125461;-82
2023/02/14 09:58:20;;;;;;;;;;;;;;;6.48;80.57;103184.43;108882;1255;74422;-82
2023/02/14 10:00:58;;;;;;;;;;;;;;;6.53;80.44;103182.52;108894;1257;126072;-83
2023/02/14 10:03:44;;;;;;;;;;;;;;;6.57;80.28;103185.69;108888;1260;72711;-82
2023/02/14 10:06:22;;;;;;;;;;;;;;;6.62;80.16;103182.76;108889;1256;60383;-82
2023/02/14 10:08:55;;;;;;;;;;;;;;;6.68;80.13;103187.27;108853;1257;124003;-82
2023/02/14 10:11:23;;;;;;;;;;;;;;;6.74;80.09;103185.29;109036;1255;72923;-82
2023/02/14 10:14:03;;;;;;;;;;;;;;;6.79;80.06;103186.52;108874;1255;124202;-83
2023/02/14 10:16:41;;;;;;;;;;;;;;;6.83;79.90;103182.30;108994;1257;72641;-82
2023/02/14 10:19:27;;;;;;;;;;;;;;;6.87;79.84;103190.85;108829;1257;124471;-82
2023/02/14 10:21:56;;;;;;;;;;;;;;;6.92;79.88;103191.03;108980;1257;59395;-82
2023/02/14 10:24:36;;;;;;;;;;;;;;;6.95;79.68;103186.23;109042;1257;73702;-82
2023/02/14 10:27:10;;;;;;;;;;;;;;;6.97;79.59;103180.66;108911;1259;66609;-83
2023/02/14 10:29:40;;;;;;;;;;;;;;;6.99;79.34;103181.52;108905;1256;72536;-83
2023/02/14 10:32:11;;;;;;;;;;;;;;;7.01;79.32;103183.57;108813;1256;125396;-83
2023/02/14 10:34:46;;;;;;;;;;;;;;;7.04;79.36;103179.07;108923;1257;59599;-82
2023/02/14 10:37:26;;;;;;;;;;;;;;;7.07;79.24;103174.29;108775;1257;125146;-83
2023/02/14 10:40:16;;;;;;;;;;;;;;;7.10;79.10;103174.64;108886;1256;66582;-82
2023/02/14 10:42:57;;;;;;;;;;;;;;;7.12;79.00;103176.23;108846;1254;124955;-82
2023/02/14 10:45:30;;;;;;;;;;;;;;;7.15;78.88;103174.19;108990;1258;59220;-83
2023/02/14 10:48:03;;;;;;;;;;;;;;;7.18;78.68;103176.67;109080;1259;58935;-82
2023/02/14 10:50:39;;;;;;;;;;;;;;;7.22;78.82;103175.91;108864;1257;125114;-82
2023/02/14 10:53:10;;;;;;;;;;;;;;;7.25;78.64;103174.61;108818;1256;67301;-82
2023/02/14 10:56:00;;;;;;;;;;;;;;;7.31;78.52;103177.52;108798;1255;124803;-82
2023/02/14 10:58:28;;;;;;;;;;;;;;;7.34;78.36;103178.44;108921;1260;58434;-82
2023/02/14 11:01:00;;;;;;;;;;;;;;;7.37;78.32;103174.69;108840;1257;124598;-83
2023/02/14 11:03:32;;;;;;;;;;;;;;;7.46;78.44;103177.41;108900;1257;72912;-82
2023/02/14 11:06:03;;;;;;;;;;;;;;;7.52;78.31;103178.09;108969;1255;65517;-83
2023/02/14 11:08:34;;;;;;;;;;;;;;;7.56;78.20;103176.15;108915;1256;124792;-83
2023/02/14 11:11:04;;;;;;;;;;;;;;;7.62;78.13;103176.89;108914;1257;58527;-82
2023/02/14 11:13:33;;;;;;;;;;;;;;;7.65;77.85;103175.87;108979;1257;124140;-83
2023/02/14 11:16:00;;;;;;;;;;;;;;;7.64;77.66;103175.66;108956;1257;73858;-82
2023/02/14 11:18:31;;;;;;;;;;;;;;;7.63;77.57;103170.66;108891;1262;65576;-82
2023/02/14 11:21:05;;;;;;;;;;;;;;;7.64;77.62;103179.29;108947;1257;72405;-82
2023/02/14 11:23:36;;;;;;;;;;;;;;;7.63;77.46;103179.77;108903;1257;58582;-82
2023/02/14 11:26:08;;;;;;;;;;;;;;;7.63;77.49;103179.09;108800;1256;124353;-83
2023/02/14 11:28:48;;;;;;;;;;;;;;;7.64;77.48;103169.56;108931;1257;73922;-82
2023/02/14 11:31:39;;;;;;;;;;;;;;;7.64;77.36;103161.34;108827;1259;124057;-82
2023/02/14 11:34:35;;;;;;;;;;;;;;;7.65;77.32;103156.52;109046;1257;73948;-82
2023/02/14 11:37:25;;;;;;;;;;;;;;;7.64;77.07;103157.01;108442;1262;124086;-83
2023/02/14 11:39:57;;;;;;;;;;;;;;;7.62;77.13;103153.17;108364;1262;59428;-83
2023/02/14 11:46:13;;;;;;;;;;;;;;;7.63;77.13;103149.70;107947;1268;65906;-83
2023/02/14 11:49:00;;;;;;;;;;;;;;;7.68;77.07;103151.10;107661;1270;124671;-83
2023/02/14 11:51:43;;;;;;;;;;;;;;;7.72;76.96;103153.36;108430;1262;59610;-83
2023/02/14 11:54:13;;;;;;;;;;;;;;;7.71;76.63;103150.30;108451;1263;59866;-83
2023/02/14 11:56:48;;;;;;;;;;;;;;;7.72;76.66;103153.73;108358;1263;124657;-83
2023/02/14 11:59:44;;;;;;;;;;;;;;;7.75;76.75;103157.59;108585;1264;65620;-83
2023/02/14 12:02:23;;;;;;;;;;;;;;;7.81;76.55;103161.34;108402;1263;123715;-83
2023/02/14 12:04:52;;;;;;;;;;;;;;;7.81;76.37;103157.19;108421;1262;58833;-82
2023/02/14 12:07:44;;;;;;;;;;;;;;;7.76;76.06;103153.48;108239;1262;124287;-83
2023/02/14 12:10:24;;;;;;;;;;;;;;;7.75;76.18;103150.23;108451;1263;73308;-82
2023/02/14 12:13:06;;;;;;;;;;;;;;;7.76;76.19;103153.47;108508;1261;124327;-83
2023/02/14 12:15:35;;;;;;;;;;;;;;;7.74;76.05;103153.17;108907;1270;73112;-82
2023/02/14 12:18:08;;;;;;;;;;;;;;;7.75;76.18;103146.42;109021;1255;59775;-82
2023/02/14 12:20:43;;;;;;;;;;;;;;;7.78;76.15;103149.27;108881;1257;125460;-82
2023/02/14 12:23:28;;;;;;;;;;;;;;;7.81;75.97;103147.86;108977;1260;74414;-82
2023/02/14 12:26:04;;;;;;;;;;;;;;;7.79;75.79;103147.44;108795;1257;124413;-83
2023/02/14 12:28:40;;;;;;;;;;;;;;;7.74;75.70;103141.64;108903;1260;72385;-82
2023/02/14 12:31:13;;;;;;;;;;;;;;;7.74;75.89;103139.23;108873;1257;125567;-82
2023/02/14 12:33:41;;;;;;;;;;;;;;;7.77;75.84;103142.36;108938;1260;59844;-83
2023/02/14 12:36:29;;;;;;;;;;;;;;;7.80;75.88;103143.63;108839;1257;72581;-82
2023/02/14 12:39:17;;;;;;;;;;;;;;;7.84;75.94;103143.09;108961;1255;124389;-82
2023/02/14 12:41:52;;;;;;;;;;;;;;;7.86;75.84;103139.87;109021;1257;72471;-82
2023/02/14 12:44:46;;;;;;;;;;;;;;;7.85;75.74;103140.88;108842;1260;124108;-82
2023/02/14 12:47:34;;;;;;;;;;;;;;;7.82;75.54;103139.29;109007;1258;60654;-82
2023/02/14 12:50:43;;;;;;;;;;;;;;;7.77;75.37;103137.83;108824;1260;124401;-82
2023/02/14 12:53:44;;;;;;;;;;;;;;;7.74;75.42;103134.96;108859;1260;67116;-83
2023/02/14 12:56:39;;;;;;;;;;;;;;;7.69;75.32;103133.07;108652;1256;124197;-82
2023/02/14 12:59:45;;;;;;;;;;;;;;;7.67;75.38;103129.53;109002;1258;58592;-82
2023/02/14 13:02:50;;;;;;;;;;;;;;;7.63;75.43;103125.75;108776;1255;124298;-82
2023/02/14 13:06:02;;;;;;;;;;;;;;;7.60;75.43;103130.23;108895;1260;74092;-82
2023/02/14 13:08:37;;;;;;;;;;;;;;;7.56;75.46;103132.14;108914;1257;125315;-82
2023/02/14 13:11:20;;;;;;;;;;;;;;;7.55;75.37;103133.20;108842;1257;71982;-82
2023/02/14 13:14:03;;;;;;;;;;;;;;;7.50;75.38;103127.77;108719;1257;125090;-83
2023/02/14 13:16:42;;;;;;;;;;;;;;;7.50;75.47;103128.77;108950;1270;60264;-82
2023/02/14 13:19:40;;;;;;;;;;;;;;;7.50;75.43;103132.80;108818;1258;124869;-82